Saint Petersburg, FL

7:18 PM EDT on July 03, 2015 (GMT -0400)
Historic Uptown | | Change Station
CLOSE
Current Station
Personal Weather Station
Location: Saint Petersburg, FL
Elevation: 52 ft
Nearby Weather Stations

Elev 52 ft 27.78 °N, 82.64 °W | Updated 14 seconds ago

Light Rain
Light Rain
76.3 °F
Feels Like 76 °F
N
0.0
Wind Variable Wind from WNW
Gusts 2.0 mph

Today
High -- | Low -- °F
--% Chance of Precip.
Yesterday
High -- | Low -- °F
Precip. -- in
6:38 AM 8:30 PM
Waning Gibbous, 95% visible
Pressure 30.04 in
Visibility 3.0 miles
Clouds Mostly Cloudy 11000 ft
Heat Index 76 °F
Dew Point 74 °F
Humidity 93%
Rainfall 0.33 in
Snow Depth Not available.
UV 0.0 out of 12
Pollen 3.70 out of 12
Air Quality Not available.
Flu Activity Not available.
METAR KSPG 032253Z 00000KT 3SM -RA BKN110 27/21 A3004 RMK AO2 PK WND 26033/2158 WSHFT 2143 LTG DSNT S SLP172 P0029 T02720206

More Conditions Fewer Conditions

Pressure 30.04 in
Visibility 3.0 miles
Clouds Mostly Cloudy 11000 ft
Heat Index 76 °F
Dew Point 74 °F
Humidity 93%
Rainfall 0.33 in
Snow Depth Not available.
UV 0.0 out of 12
Pollen 3.70 out of 12
Air Quality Not available.
Flu Activity Not available.
METAR KSPG 032253Z 00000KT 3SM -RA BKN110 27/21 A3004 RMK AO2 PK WND 26033/2158 WSHFT 2143 LTG DSNT S SLP172 P0029 T02720206

More Conditions Fewer Conditions

10-Day Weather Forecast

×

Almanac

Astronomy

Jul. 03, 2015 Rise Set
Actual Time
Civil Twilight
Nautical Twilight
Astronomical Twilight
Moon
Length of Visible Light
Length of Day
Tomorrow will be .
, % of the Moon is Illuminated

Today's Extremes

State Highs State Lows

Community

WunderPhotos

Upload Photos

1,834,819 photos uploaded!

WunderBlogs® & News

Nearby

Air Quality

  Air Quality AQ Index Pollutant
Not available.

Snow Depth

Station Depth Elevation

Earthquake Activity

City Distance Mag. Time & Date
Minimum magnitude displayed is 2.5.

Coastal Water Temperatures

Place Temperature

Stations

Nearby Weather Stations

Station Location Temp. Windchill Dew Point Humidity Wind Precip. Elev Updated Type